sensor_id;sensor_type;location;lat;lon;timestamp;P1;durP1;ratioP1;P2;durP2;ratioP2
60354;SDS011;46198;51.464;-0.066;2023-03-03T00:01:03;4.97;;;3.90;;
60354;SDS011;46198;51.464;-0.066;2023-03-03T00:03:31;6.10;;;4.37;;
60354;SDS011;46198;51.464;-0.066;2023-03-03T00:05:59;12.63;;;4.27;;
60354;SDS011;46198;51.464;-0.066;2023-03-03T00:08:29;7.33;;;3.60;;
60354;SDS011;46198;51.464;-0.066;2023-03-03T00:10:58;9.40;;;4.80;;
60354;SDS011;46198;51.464;-0.066;2023-03-03T00:13:29;6.82;;;3.80;;
60354;SDS011;46198;51.464;-0.066;2023-03-03T00:16:10;8.67;;;4.20;;
60354;SDS011;46198;51.464;-0.066;2023-03-03T00:18:43;6.50;;;3.80;;
60354;SDS011;46198;51.464;-0.066;2023-03-03T00:21:23;7.38;;;4.43;;
60354;SDS011;46198;51.464;-0.066;2023-03-03T00:24:04;6.00;;;4.17;;
60354;SDS011;46198;51.464;-0.066;2023-03-03T00:26:43;8.63;;;4.00;;
60354;SDS011;46198;51.464;-0.066;2023-03-03T00:29:22;8.80;;;4.13;;
60354;SDS011;46198;51.464;-0.066;2023-03-03T00:31:55;7.20;;;4.30;;
60354;SDS011;46198;51.464;-0.066;2023-03-03T00:34:37;7.53;;;4.43;;
60354;SDS011;46198;51.464;-0.066;2023-03-03T00:37:09;8.83;;;3.97;;
60354;SDS011;46198;51.464;-0.066;2023-03-03T00:39:50;8.57;;;4.00;;
60354;SDS011;46198;51.464;-0.066;2023-03-03T00:42:18;6.87;;;4.40;;
60354;SDS011;46198;51.464;-0.066;2023-03-03T00:44:46;10.20;;;4.40;;
60354;SDS011;46198;51.464;-0.066;2023-03-03T00:47:27;8.57;;;4.73;;
60354;SDS011;46198;51.464;-0.066;2023-03-03T00:52:59;11.47;;;4.93;;
60354;SDS011;46198;51.464;-0.066;2023-03-03T00:55:32;10.60;;;5.10;;
60354;SDS011;46198;51.464;-0.066;2023-03-03T00:58:01;6.50;;;4.10;;
60354;SDS011;46198;51.464;-0.066;2023-03-03T01:00:34;7.30;;;4.50;;
60354;SDS011;46198;51.464;-0.066;2023-03-03T01:03:06;11.13;;;5.80;;
60354;SDS011;46198;51.464;-0.066;2023-03-03T01:05:35;10.40;;;5.13;;
60354;SDS011;46198;51.464;-0.066;2023-03-03T01:08:04;9.73;;;4.63;;
60354;SDS011;46198;51.464;-0.066;2023-03-03T01:10:33;7.07;;;4.40;;
60354;SDS011;46198;51.464;-0.066;2023-03-03T01:13:04;12.37;;;5.13;;
60354;SDS011;46198;51.464;-0.066;2023-03-03T01:15:33;8.30;;;4.70;;
60354;SDS011;46198;51.464;-0.066;2023-03-03T01:18:01;9.97;;;4.60;;
60354;SDS011;46198;51.464;-0.066;2023-03-03T01:20:31;6.80;;;4.30;;
60354;SDS011;46198;51.464;-0.066;2023-03-03T01:22:59;7.53;;;4.33;;
60354;SDS011;46198;51.464;-0.066;2023-03-03T01:25:27;8.23;;;4.57;;
60354;SDS011;46198;51.464;-0.066;2023-03-03T01:27:56;6.33;;;4.30;;
60354;SDS011;46198;51.464;-0.066;2023-03-03T01:30:25;5.90;;;4.60;;
60354;SDS011;46198;51.464;-0.066;2023-03-03T01:32:53;10.30;;;5.37;;
60354;SDS011;46198;51.464;-0.066;2023-03-03T01:35:22;7.40;;;4.83;;
60354;SDS011;46198;51.464;-0.066;2023-03-03T01:37:51;13.43;;;5.40;;
60354;SDS011;46198;51.464;-0.066;2023-03-03T01:40:20;11.67;;;5.00;;
60354;SDS011;46198;51.464;-0.066;2023-03-03T01:42:49;10.63;;;4.87;;
60354;SDS011;46198;51.464;-0.066;2023-03-03T01:45:20;7.50;;;4.50;;
60354;SDS011;46198;51.464;-0.066;2023-03-03T01:47:51;7.83;;;4.30;;
60354;SDS011;46198;51.464;-0.066;2023-03-03T01:50:35;11.47;;;5.40;;
60354;SDS011;46198;51.464;-0.066;2023-03-03T01:53:12;8.10;;;4.80;;
60354;SDS011;46198;51.464;-0.066;2023-03-03T01:55:44;8.03;;;4.50;;
60354;SDS011;46198;51.464;-0.066;2023-03-03T01:58:15;12.73;;;5.35;;
60354;SDS011;46198;51.464;-0.066;2023-03-03T02:00:48;11.50;;;5.13;;
60354;SDS011;46198;51.464;-0.066;2023-03-03T02:03:18;8.37;;;5.17;;
60354;SDS011;46198;51.464;-0.066;2023-03-03T02:05:48;14.70;;;5.15;;
60354;SDS011;46198;51.464;-0.066;2023-03-03T02:08:21;9.05;;;5.60;;
60354;SDS011;46198;51.464;-0.066;2023-03-03T02:10:55;8.17;;;4.87;;
60354;SDS011;46198;51.464;-0.066;2023-03-03T02:13:24;10.17;;;5.23;;
60354;SDS011;46198;51.464;-0.066;2023-03-03T02:15:53;10.57;;;5.50;;
60354;SDS011;46198;51.464;-0.066;2023-03-03T02:18:22;10.77;;;5.53;;
60354;SDS011;46198;51.464;-0.066;2023-03-03T02:20:52;11.27;;;6.13;;
60354;SDS011;46198;51.464;-0.066;2023-03-03T02:23:28;13.43;;;5.23;;
60354;SDS011;46198;51.464;-0.066;2023-03-03T02:26:07;10.23;;;6.23;;
60354;SDS011;46198;51.464;-0.066;2023-03-03T02:28:38;10.37;;;6.10;;
60354;SDS011;46198;51.464;-0.066;2023-03-03T02:31:09;12.32;;;6.10;;
60354;SDS011;46198;51.464;-0.066;2023-03-03T02:33:41;11.53;;;6.10;;
60354;SDS011;46198;51.464;-0.066;2023-03-03T02:36:10;10.57;;;5.93;;
60354;SDS011;46198;51.464;-0.066;2023-03-03T02:38:41;10.33;;;6.10;;
60354;SDS011;46198;51.464;-0.066;2023-03-03T02:41:17;9.70;;;5.83;;
60354;SDS011;46198;51.464;-0.066;2023-03-03T02:43:55;8.03;;;5.03;;
60354;SDS011;46198;51.464;-0.066;2023-03-03T02:46:26;11.13;;;5.87;;
60354;SDS011;46198;51.464;-0.066;2023-03-03T02:48:55;9.40;;;5.37;;
60354;SDS011;46198;51.464;-0.066;2023-03-03T02:51:23;9.50;;;5.90;;
60354;SDS011;46198;51.464;-0.066;2023-03-03T02:53:52;10.60;;;5.90;;
60354;SDS011;46198;51.464;-0.066;2023-03-03T02:56:21;9.87;;;5.87;;
60354;SDS011;46198;51.464;-0.066;2023-03-03T02:58:50;8.37;;;5.20;;
60354;SDS011;46198;51.464;-0.066;2023-03-03T03:01:19;10.23;;;5.30;;
60354;SDS011;46198;51.464;-0.066;2023-03-03T03:03:49;12.35;;;5.65;;
60354;SDS011;46198;51.464;-0.066;2023-03-03T03:06:20;8.25;;;5.35;;
60354;SDS011;46198;51.464;-0.066;2023-03-03T03:08:48;10.20;;;5.13;;
60354;SDS011;46198;51.464;-0.066;2023-03-03T03:11:16;9.80;;;5.70;;
60354;SDS011;46198;51.464;-0.066;2023-03-03T03:13:45;8.90;;;5.60;;
60354;SDS011;46198;51.464;-0.066;2023-03-03T03:16:14;9.70;;;5.67;;
60354;SDS011;46198;51.464;-0.066;2023-03-03T03:18:42;9.03;;;5.13;;
60354;SDS011;46198;51.464;-0.066;2023-03-03T03:21:11;9.77;;;5.87;;
60354;SDS011;46198;51.464;-0.066;2023-03-03T03:23:41;8.15;;;5.53;;
60354;SDS011;46198;51.464;-0.066;2023-03-03T03:26:10;8.43;;;4.70;;
60354;SDS011;46198;51.464;-0.066;2023-03-03T03:28:38;10.70;;;5.50;;
60354;SDS011;46198;51.464;-0.066;2023-03-03T03:31:09;8.50;;;4.67;;
60354;SDS011;46198;51.464;-0.066;2023-03-03T03:33:37;11.90;;;5.60;;
60354;SDS011;46198;51.464;-0.066;2023-03-03T03:36:06;8.00;;;4.97;;
60354;SDS011;46198;51.464;-0.066;2023-03-03T03:38:35;10.93;;;5.13;;
60354;SDS011;46198;51.464;-0.066;2023-03-03T03:41:05;10.60;;;5.78;;
60354;SDS011;46198;51.464;-0.066;2023-03-03T03:43:34;8.30;;;5.17;;
60354;SDS011;46198;51.464;-0.066;2023-03-03T03:46:02;12.20;;;5.80;;
60354;SDS011;46198;51.464;-0.066;2023-03-03T03:48:33;8.70;;;5.90;;
60354;SDS011;46198;51.464;-0.066;2023-03-03T03:51:03;8.33;;;5.23;;
60354;SDS011;46198;51.464;-0.066;2023-03-03T03:53:33;10.80;;;5.50;;
60354;SDS011;46198;51.464;-0.066;2023-03-03T03:56:01;8.67;;;5.03;;
60354;SDS011;46198;51.464;-0.066;2023-03-03T03:58:29;9.30;;;5.10;;
60354;SDS011;46198;51.464;-0.066;2023-03-03T04:01:02;8.33;;;5.10;;
60354;SDS011;46198;51.464;-0.066;2023-03-03T04:03:40;7.57;;;4.90;;
60354;SDS011;46198;51.464;-0.066;2023-03-03T04:06:11;9.47;;;5.00;;
60354;SDS011;46198;51.464;-0.066;2023-03-03T04:08:40;9.10;;;4.90;;
60354;SDS011;46198;51.464;-0.066;2023-03-03T04:11:08;7.77;;;4.90;;
60354;SDS011;46198;51.464;-0.066;2023-03-03T04:13:37;10.27;;;5.10;;
60354;SDS011;46198;51.464;-0.066;2023-03-03T04:16:07;9.57;;;4.43;;
60354;SDS011;46198;51.464;-0.066;2023-03-03T04:18:36;9.53;;;5.17;;
60354;SDS011;46198;51.464;-0.066;2023-03-03T04:21:06;9.97;;;5.03;;
60354;SDS011;46198;51.464;-0.066;2023-03-03T04:23:38;8.47;;;4.70;;
60354;SDS011;46198;51.464;-0.066;2023-03-03T04:26:07;6.93;;;5.23;;
60354;SDS011;46198;51.464;-0.066;2023-03-03T04:28:36;6.80;;;4.40;;
60354;SDS011;46198;51.464;-0.066;2023-03-03T04:31:05;8.63;;;5.00;;
60354;SDS011;46198;51.464;-0.066;2023-03-03T04:33:33;10.87;;;5.30;;
60354;SDS011;46198;51.464;-0.066;2023-03-03T04:36:03;6.97;;;4.67;;
60354;SDS011;46198;51.464;-0.066;2023-03-03T04:38:33;9.27;;;5.20;;
60354;SDS011;46198;51.464;-0.066;2023-03-03T04:41:01;11.83;;;4.87;;
60354;SDS011;46198;51.464;-0.066;2023-03-03T04:43:33;8.47;;;4.70;;
60354;SDS011;46198;51.464;-0.066;2023-03-03T04:46:03;8.03;;;5.03;;
60354;SDS011;46198;51.464;-0.066;2023-03-03T04:48:32;9.40;;;4.47;;
60354;SDS011;46198;51.464;-0.066;2023-03-03T04:51:00;8.33;;;4.77;;
60354;SDS011;46198;51.464;-0.066;2023-03-03T04:53:30;6.43;;;4.40;;
60354;SDS011;46198;51.464;-0.066;2023-03-03T04:55:59;7.80;;;4.80;;
60354;SDS011;46198;51.464;-0.066;2023-03-03T04:58:27;10.10;;;4.40;;
60354;SDS011;46198;51.464;-0.066;2023-03-03T05:00:55;7.60;;;4.70;;
60354;SDS011;46198;51.464;-0.066;2023-03-03T05:03:26;8.77;;;4.20;;
60354;SDS011;46198;51.464;-0.066;2023-03-03T05:05:54;8.00;;;4.53;;
60354;SDS011;46198;51.464;-0.066;2023-03-03T05:08:22;8.77;;;4.53;;
60354;SDS011;46198;51.464;-0.066;2023-03-03T05:10:51;6.97;;;4.20;;
60354;SDS011;46198;51.464;-0.066;2023-03-03T05:13:21;5.87;;;4.20;;
60354;SDS011;46198;51.464;-0.066;2023-03-03T05:15:49;9.33;;;4.13;;
60354;SDS011;46198;51.464;-0.066;2023-03-03T05:18:17;7.90;;;4.50;;
60354;SDS011;46198;51.464;-0.066;2023-03-03T05:20:46;8.20;;;4.20;;
60354;SDS011;46198;51.464;-0.066;2023-03-03T05:23:14;6.13;;;4.40;;
60354;SDS011;46198;51.464;-0.066;2023-03-03T05:25:43;7.97;;;5.00;;
60354;SDS011;46198;51.464;-0.066;2023-03-03T05:28:11;5.23;;;3.73;;
60354;SDS011;46198;51.464;-0.066;2023-03-03T05:30:40;7.67;;;4.57;;
60354;SDS011;46198;51.464;-0.066;2023-03-03T05:33:09;8.07;;;4.00;;
60354;SDS011;46198;51.464;-0.066;2023-03-03T05:35:39;9.43;;;4.30;;
60354;SDS011;46198;51.464;-0.066;2023-03-03T05:38:08;7.37;;;4.37;;
60354;SDS011;46198;51.464;-0.066;2023-03-03T05:40:36;10.40;;;4.67;;
60354;SDS011;46198;51.464;-0.066;2023-03-03T05:43:04;6.07;;;3.90;;
60354;SDS011;46198;51.464;-0.066;2023-03-03T05:45:33;8.67;;;4.20;;
60354;SDS011;46198;51.464;-0.066;2023-03-03T05:48:02;12.37;;;4.77;;
60354;SDS011;46198;51.464;-0.066;2023-03-03T05:50:30;5.63;;;4.27;;
60354;SDS011;46198;51.464;-0.066;2023-03-03T05:52:59;7.07;;;4.03;;
60354;SDS011;46198;51.464;-0.066;2023-03-03T05:55:27;7.43;;;4.17;;
60354;SDS011;46198;51.464;-0.066;2023-03-03T05:57:55;6.60;;;4.00;;
60354;SDS011;46198;51.464;-0.066;2023-03-03T06:00:23;6.37;;;3.60;;
60354;SDS011;46198;51.464;-0.066;2023-03-03T06:02:51;5.47;;;3.93;;
60354;SDS011;46198;51.464;-0.066;2023-03-03T06:05:20;6.97;;;3.57;;
60354;SDS011;46198;51.464;-0.066;2023-03-03T06:07:48;6.47;;;3.93;;
60354;SDS011;46198;51.464;-0.066;2023-03-03T06:10:17;9.00;;;3.77;;
60354;SDS011;46198;51.464;-0.066;2023-03-03T06:12:50;8.80;;;3.87;;
60354;SDS011;46198;51.464;-0.066;2023-03-03T06:15:19;6.27;;;3.50;;
60354;SDS011;46198;51.464;-0.066;2023-03-03T06:17:47;5.43;;;3.33;;
60354;SDS011;46198;51.464;-0.066;2023-03-03T06:20:15;6.07;;;3.50;;
60354;SDS011;46198;51.464;-0.066;2023-03-03T06:22:44;4.77;;;3.17;;
60354;SDS011;46198;51.464;-0.066;2023-03-03T06:25:12;4.20;;;2.90;;
60354;SDS011;46198;51.464;-0.066;2023-03-03T06:27:41;6.43;;;3.50;;
60354;SDS011;46198;51.464;-0.066;2023-03-03T06:30:09;7.23;;;3.57;;
60354;SDS011;46198;51.464;-0.066;2023-03-03T06:32:38;5.53;;;3.60;;
60354;SDS011;46198;51.464;-0.066;2023-03-03T06:35:07;6.07;;;3.73;;
60354;SDS011;46198;51.464;-0.066;2023-03-03T06:37:35;6.53;;;3.83;;
60354;SDS011;46198;51.464;-0.066;2023-03-03T06:40:05;5.03;;;3.10;;
60354;SDS011;46198;51.464;-0.066;2023-03-03T06:42:34;5.40;;;3.40;;
60354;SDS011;46198;51.464;-0.066;2023-03-03T06:45:02;6.97;;;3.50;;
60354;SDS011;46198;51.464;-0.066;2023-03-03T06:47:31;8.20;;;3.67;;
60354;SDS011;46198;51.464;-0.066;2023-03-03T06:49:59;5.23;;;3.20;;
60354;SDS011;46198;51.464;-0.066;2023-03-03T06:52:27;6.07;;;3.80;;
60354;SDS011;46198;51.464;-0.066;2023-03-03T06:54:56;7.33;;;3.57;;
60354;SDS011;46198;51.464;-0.066;2023-03-03T06:57:27;7.93;;;3.27;;
60354;SDS011;46198;51.464;-0.066;2023-03-03T06:59:57;10.17;;;4.00;;
60354;SDS011;46198;51.464;-0.066;2023-03-03T07:02:32;3.80;;;3.10;;
60354;SDS011;46198;51.464;-0.066;2023-03-03T07:05:00;4.73;;;3.57;;
60354;SDS011;46198;51.464;-0.066;2023-03-03T07:07:29;4.93;;;3.87;;
60354;SDS011;46198;51.464;-0.066;2023-03-03T07:09:57;5.77;;;3.93;;
60354;SDS011;46198;51.464;-0.066;2023-03-03T07:12:28;8.57;;;3.70;;
60354;SDS011;46198;51.464;-0.066;2023-03-03T07:14:58;7.10;;;3.87;;
60354;SDS011;46198;51.464;-0.066;2023-03-03T07:17:39;5.07;;;2.70;;
60354;SDS011;46198;51.464;-0.066;2023-03-03T07:20:14;5.20;;;3.17;;
60354;SDS011;46198;51.464;-0.066;2023-03-03T07:22:45;7.27;;;3.23;;
60354;SDS011;46198;51.464;-0.066;2023-03-03T07:25:18;8.37;;;3.60;;
60354;SDS011;46198;51.464;-0.066;2023-03-03T07:27:50;4.50;;;3.40;;
60354;SDS011;46198;51.464;-0.066;2023-03-03T07:32:51;5.15;;;3.08;;
60354;SDS011;46198;51.464;-0.066;2023-03-03T07:35:28;5.60;;;3.07;;
60354;SDS011;46198;51.464;-0.066;2023-03-03T07:38:09;5.63;;;3.07;;
60354;SDS011;46198;51.464;-0.066;2023-03-03T07:40:45;7.90;;;3.67;;
60354;SDS011;46198;51.464;-0.066;2023-03-03T07:43:24;5.70;;;3.50;;
60354;SDS011;46198;51.464;-0.066;2023-03-03T07:46:00;6.97;;;3.70;;
60354;SDS011;46198;51.464;-0.066;2023-03-03T07:48:34;6.33;;;3.47;;
60354;SDS011;46198;51.464;-0.066;2023-03-03T07:51:11;8.23;;;4.50;;
60354;SDS011;46198;51.464;-0.066;2023-03-03T07:53:42;9.77;;;4.10;;
60354;SDS011;46198;51.464;-0.066;2023-03-03T07:56:14;9.43;;;4.17;;
60354;SDS011;46198;51.464;-0.066;2023-03-03T07:58:50;9.13;;;4.10;;
60354;SDS011;46198;51.464;-0.066;2023-03-03T08:01:31;9.63;;;4.60;;
60354;SDS011;46198;51.464;-0.066;2023-03-03T08:04:12;9.30;;;4.53;;
60354;SDS011;46198;51.464;-0.066;2023-03-03T08:06:44;9.90;;;4.53;;
60354;SDS011;46198;51.464;-0.066;2023-03-03T08:09:26;10.90;;;5.55;;
60354;SDS011;46198;51.464;-0.066;2023-03-03T08:11:58;6.70;;;3.53;;
60354;SDS011;46198;51.464;-0.066;2023-03-03T08:14:46;6.57;;;3.27;;
60354;SDS011;46198;51.464;-0.066;2023-03-03T08:17:16;9.23;;;3.93;;
60354;SDS011;46198;51.464;-0.066;2023-03-03T08:19:47;9.50;;;4.27;;
60354;SDS011;46198;51.464;-0.066;2023-03-03T08:22:17;8.10;;;4.13;;
60354;SDS011;46198;51.464;-0.066;2023-03-03T08:24:51;6.40;;;4.03;;
60354;SDS011;46198;51.464;-0.066;2023-03-03T08:27:19;6.90;;;3.77;;
60354;SDS011;46198;51.464;-0.066;2023-03-03T08:29:48;9.77;;;3.83;;
60354;SDS011;46198;51.464;-0.066;2023-03-03T08:32:16;6.27;;;3.77;;
60354;SDS011;46198;51.464;-0.066;2023-03-03T08:34:44;7.33;;;4.27;;
60354;SDS011;46198;51.464;-0.066;2023-03-03T08:37:12;9.80;;;4.77;;
60354;SDS011;46198;51.464;-0.066;2023-03-03T08:39:40;10.20;;;4.53;;
60354;SDS011;46198;51.464;-0.066;2023-03-03T08:42:09;5.63;;;4.17;;
60354;SDS011;46198;51.464;-0.066;2023-03-03T08:44:40;9.32;;;5.00;;
60354;SDS011;46198;51.464;-0.066;2023-03-03T08:47:10;8.03;;;4.60;;
60354;SDS011;46198;51.464;-0.066;2023-03-03T08:49:38;7.53;;;3.90;;
60354;SDS011;46198;51.464;-0.066;2023-03-03T08:52:06;7.90;;;4.20;;
60354;SDS011;46198;51.464;-0.066;2023-03-03T08:54:34;9.13;;;4.20;;
60354;SDS011;46198;51.464;-0.066;2023-03-03T08:57:02;9.13;;;4.00;;
60354;SDS011;46198;51.464;-0.066;2023-03-03T08:59:30;6.77;;;3.43;;
60354;SDS011;46198;51.464;-0.066;2023-03-03T09:02:03;8.10;;;3.73;;
60354;SDS011;46198;51.464;-0.066;2023-03-03T09:04:35;8.90;;;4.00;;
60354;SDS011;46198;51.464;-0.066;2023-03-03T09:07:03;6.50;;;4.10;;
60354;SDS011;46198;51.464;-0.066;2023-03-03T09:09:31;9.30;;;4.87;;
60354;SDS011;46198;51.464;-0.066;2023-03-03T09:12:01;11.33;;;4.33;;
60354;SDS011;46198;51.464;-0.066;2023-03-03T09:14:39;8.77;;;4.50;;
60354;SDS011;46198;51.464;-0.066;2023-03-03T09:17:16;5.07;;;3.80;;
60354;SDS011;46198;51.464;-0.066;2023-03-03T09:19:51;7.20;;;3.90;;
60354;SDS011;46198;51.464;-0.066;2023-03-03T09:22:24;7.07;;;3.90;;
60354;SDS011;46198;51.464;-0.066;2023-03-03T09:24:56;6.80;;;4.27;;
60354;SDS011;46198;51.464;-0.066;2023-03-03T09:30:00;7.97;;;3.83;;
60354;SDS011;46198;51.464;-0.066;2023-03-03T09:32:30;8.15;;;4.55;;
60354;SDS011;46198;51.464;-0.066;2023-03-03T09:37:54;4.93;;;3.50;;
60354;SDS011;46198;51.464;-0.066;2023-03-03T09:40:29;7.37;;;3.47;;
60354;SDS011;46198;51.464;-0.066;2023-03-03T09:43:14;6.93;;;3.73;;
60354;SDS011;46198;51.464;-0.066;2023-03-03T09:45:51;7.77;;;4.03;;
60354;SDS011;46198;51.464;-0.066;2023-03-03T09:48:38;4.40;;;3.23;;
60354;SDS011;46198;51.464;-0.066;2023-03-03T09:51:22;7.47;;;4.10;;
60354;SDS011;46198;51.464;-0.066;2023-03-03T09:54:08;6.67;;;3.70;;
60354;SDS011;46198;51.464;-0.066;2023-03-03T09:59:27;7.47;;;4.07;;
60354;SDS011;46198;51.464;-0.066;2023-03-03T10:02:08;7.00;;;3.47;;
60354;SDS011;46198;51.464;-0.066;2023-03-03T10:04:53;8.67;;;3.43;;
60354;SDS011;46198;51.464;-0.066;2023-03-03T10:07:36;4.27;;;2.87;;
60354;SDS011;46198;51.464;-0.066;2023-03-03T10:10:39;5.47;;;3.50;;
60354;SDS011;46198;51.464;-0.066;2023-03-03T10:13:18;8.02;;;2.92;;
60354;SDS011;46198;51.464;-0.066;2023-03-03T10:16:07;4.50;;;2.60;;
60354;SDS011;46198;51.464;-0.066;2023-03-03T10:18:50;8.97;;;3.40;;
60354;SDS011;46198;51.464;-0.066;2023-03-03T10:21:22;5.87;;;2.90;;
60354;SDS011;46198;51.464;-0.066;2023-03-03T10:24:00;5.23;;;3.40;;
60354;SDS011;46198;51.464;-0.066;2023-03-03T10:26:39;6.27;;;3.30;;
60354;SDS011;46198;51.464;-0.066;2023-03-03T10:29:35;10.70;;;4.10;;
60354;SDS011;46198;51.464;-0.066;2023-03-03T10:32:29;7.97;;;3.80;;
60354;SDS011;46198;51.464;-0.066;2023-03-03T10:35:17;7.27;;;3.03;;
60354;SDS011;46198;51.464;-0.066;2023-03-03T10:37:57;4.67;;;2.77;;
60354;SDS011;46198;51.464;-0.066;2023-03-03T10:40:44;5.23;;;3.00;;
60354;SDS011;46198;51.464;-0.066;2023-03-03T10:43:24;7.90;;;3.30;;
60354;SDS011;46198;51.464;-0.066;2023-03-03T10:52:10;8.37;;;3.43;;
60354;SDS011;46198;51.464;-0.066;2023-03-03T10:54:54;5.97;;;3.50;;
60354;SDS011;46198;51.464;-0.066;2023-03-03T10:57:44;7.57;;;3.27;;
60354;SDS011;46198;51.464;-0.066;2023-03-03T11:00:21;3.63;;;2.43;;
60354;SDS011;46198;51.464;-0.066;2023-03-03T11:05:50;8.73;;;2.57;;
60354;SDS011;46198;51.464;-0.066;2023-03-03T11:08:23;5.37;;;2.47;;
60354;SDS011;46198;51.464;-0.066;2023-03-03T11:10:57;5.33;;;2.60;;
60354;SDS011;46198;51.464;-0.066;2023-03-03T11:13:37;7.23;;;3.27;;
60354;SDS011;46198;51.464;-0.066;2023-03-03T11:16:19;2.97;;;2.17;;
60354;SDS011;46198;51.464;-0.066;2023-03-03T11:18:59;6.37;;;2.80;;
60354;SDS011;46198;51.464;-0.066;2023-03-03T11:21:40;4.70;;;2.77;;
60354;SDS011;46198;51.464;-0.066;2023-03-03T11:24:22;2.90;;;2.43;;
60354;SDS011;46198;51.464;-0.066;2023-03-03T11:27:05;4.43;;;2.70;;
60354;SDS011;46198;51.464;-0.066;2023-03-03T11:29:46;7.43;;;2.97;;
60354;SDS011;46198;51.464;-0.066;2023-03-03T11:32:33;3.67;;;2.10;;
60354;SDS011;46198;51.464;-0.066;2023-03-03T11:35:14;4.37;;;2.37;;
60354;SDS011;46198;51.464;-0.066;2023-03-03T11:37:53;4.47;;;2.50;;
60354;SDS011;46198;51.464;-0.066;2023-03-03T11:40:29;4.03;;;2.50;;
60354;SDS011;46198;51.464;-0.066;2023-03-03T11:43:05;4.00;;;2.43;;
60354;SDS011;46198;51.464;-0.066;2023-03-03T11:46:02;3.20;;;2.23;;
60354;SDS011;46198;51.464;-0.066;2023-03-03T11:48:35;4.93;;;2.37;;
60354;SDS011;46198;51.464;-0.066;2023-03-03T11:51:11;2.47;;;2.10;;
60354;SDS011;46198;51.464;-0.066;2023-03-03T11:53:49;4.60;;;2.03;;
60354;SDS011;46198;51.464;-0.066;2023-03-03T11:56:26;5.63;;;2.37;;
60354;SDS011;46198;51.464;-0.066;2023-03-03T12:01:54;3.87;;;2.03;;
60354;SDS011;46198;51.464;-0.066;2023-03-03T12:04:25;4.03;;;2.00;;
60354;SDS011;46198;51.464;-0.066;2023-03-03T12:07:05;4.03;;;1.90;;
60354;SDS011;46198;51.464;-0.066;2023-03-03T12:09:46;2.97;;;1.70;;
60354;SDS011;46198;51.464;-0.066;2023-03-03T12:12:22;2.60;;;1.50;;
60354;SDS011;46198;51.464;-0.066;2023-03-03T12:15:00;3.20;;;1.30;;
60354;SDS011;46198;51.464;-0.066;2023-03-03T12:17:40;1.93;;;1.40;;
60354;SDS011;46198;51.464;-0.066;2023-03-03T12:20:37;2.43;;;1.50;;
60354;SDS011;46198;51.464;-0.066;2023-03-03T12:23:17;1.40;;;1.30;;
60354;SDS011;46198;51.464;-0.066;2023-03-03T12:25:59;4.43;;;1.50;;
60354;SDS011;46198;51.464;-0.066;2023-03-03T12:28:34;1.37;;;1.00;;
60354;SDS011;46198;51.464;-0.066;2023-03-03T12:31:14;8.60;;;1.90;;
60354;SDS011;46198;51.464;-0.066;2023-03-03T12:33:57;4.77;;;1.83;;
60354;SDS011;46198;51.464;-0.066;2023-03-03T12:36:47;2.90;;;2.00;;
60354;SDS011;46198;51.464;-0.066;2023-03-03T12:39:40;4.27;;;2.00;;
60354;SDS011;46198;51.464;-0.066;2023-03-03T12:42:18;2.90;;;1.73;;
60354;SDS011;46198;51.464;-0.066;2023-03-03T12:44:54;4.53;;;1.87;;
60354;SDS011;46198;51.464;-0.066;2023-03-03T12:47:32;1.73;;;1.57;;
60354;SDS011;46198;51.464;-0.066;2023-03-03T12:50:13;2.30;;;1.50;;
60354;SDS011;46198;51.464;-0.066;2023-03-03T12:52:53;4.30;;;2.13;;
60354;SDS011;46198;51.464;-0.066;2023-03-03T12:55:37;4.03;;;2.13;;
60354;SDS011;46198;51.464;-0.066;2023-03-03T12:58:18;4.13;;;1.90;;
60354;SDS011;46198;51.464;-0.066;2023-03-03T13:01:00;2.07;;;1.40;;
60354;SDS011;46198;51.464;-0.066;2023-03-03T13:03:39;4.20;;;1.97;;
60354;SDS011;46198;51.464;-0.066;2023-03-03T13:06:26;3.03;;;1.43;;
60354;SDS011;46198;51.464;-0.066;2023-03-03T13:09:16;3.10;;;1.60;;
60354;SDS011;46198;51.464;-0.066;2023-03-03T13:11:54;4.87;;;2.30;;
60354;SDS011;46198;51.464;-0.066;2023-03-03T13:14:48;1.87;;;1.53;;
60354;SDS011;46198;51.464;-0.066;2023-03-03T13:17:21;3.50;;;1.50;;
60354;SDS011;46198;51.464;-0.066;2023-03-03T13:19:55;6.60;;;1.90;;
60354;SDS011;46198;51.464;-0.066;2023-03-03T13:22:32;3.67;;;2.10;;
60354;SDS011;46198;51.464;-0.066;2023-03-03T13:25:06;3.40;;;2.23;;
60354;SDS011;46198;51.464;-0.066;2023-03-03T13:27:48;3.13;;;1.90;;
60354;SDS011;46198;51.464;-0.066;2023-03-03T13:30:20;5.07;;;2.30;;
60354;SDS011;46198;51.464;-0.066;2023-03-03T13:32:51;5.28;;;2.28;;
60354;SDS011;46198;51.464;-0.066;2023-03-03T13:35:29;4.57;;;1.90;;
60354;SDS011;46198;51.464;-0.066;2023-03-03T13:38:09;4.47;;;1.77;;
60354;SDS011;46198;51.464;-0.066;2023-03-03T13:40:42;2.50;;;2.00;;
60354;SDS011;46198;51.464;-0.066;2023-03-03T13:43:13;4.60;;;1.98;;
60354;SDS011;46198;51.464;-0.066;2023-03-03T13:45:49;2.23;;;2.03;;
60354;SDS011;46198;51.464;-0.066;2023-03-03T13:48:30;2.60;;;1.93;;
60354;SDS011;46198;51.464;-0.066;2023-03-03T13:51:23;3.43;;;1.93;;
60354;SDS011;46198;51.464;-0.066;2023-03-03T13:54:03;2.93;;;1.80;;
60354;SDS011;46198;51.464;-0.066;2023-03-03T13:56:46;2.10;;;1.73;;
60354;SDS011;46198;51.464;-0.066;2023-03-03T13:59:27;2.00;;;1.67;;
60354;SDS011;46198;51.464;-0.066;2023-03-03T14:02:06;1.80;;;1.70;;
60354;SDS011;46198;51.464;-0.066;2023-03-03T14:04:52;3.10;;;2.00;;
60354;SDS011;46198;51.464;-0.066;2023-03-03T14:07:22;3.43;;;1.67;;
60354;SDS011;46198;51.464;-0.066;2023-03-03T14:09:58;4.83;;;1.60;;
60354;SDS011;46198;51.464;-0.066;2023-03-03T14:12:37;3.47;;;1.63;;
60354;SDS011;46198;51.464;-0.066;2023-03-03T14:15:15;2.43;;;1.60;;
60354;SDS011;46198;51.464;-0.066;2023-03-03T14:17:54;1.40;;;1.30;;
60354;SDS011;46198;51.464;-0.066;2023-03-03T14:20:32;2.77;;;1.53;;
60354;SDS011;46198;51.464;-0.066;2023-03-03T14:23:07;2.23;;;1.20;;
60354;SDS011;46198;51.464;-0.066;2023-03-03T14:25:51;4.20;;;1.50;;
60354;SDS011;46198;51.464;-0.066;2023-03-03T14:28:23;1.57;;;1.20;;
60354;SDS011;46198;51.464;-0.066;2023-03-03T14:30:52;1.10;;;1.10;;
60354;SDS011;46198;51.464;-0.066;2023-03-03T14:33:26;2.20;;;1.20;;
60354;SDS011;46198;51.464;-0.066;2023-03-03T14:36:04;6.27;;;3.20;;
60354;SDS011;46198;51.464;-0.066;2023-03-03T14:38:43;1.00;;;0.80;;
60354;SDS011;46198;51.464;-0.066;2023-03-03T14:41:16;2.13;;;1.00;;
60354;SDS011;46198;51.464;-0.066;2023-03-03T14:43:55;1.30;;;0.80;;
60354;SDS011;46198;51.464;-0.066;2023-03-03T14:49:42;2.77;;;1.30;;
60354;SDS011;46198;51.464;-0.066;2023-03-03T14:52:17;3.20;;;1.37;;
60354;SDS011;46198;51.464;-0.066;2023-03-03T14:54:50;2.73;;;1.50;;
60354;SDS011;46198;51.464;-0.066;2023-03-03T14:57:21;4.87;;;1.70;;
60354;SDS011;46198;51.464;-0.066;2023-03-03T15:05:55;2.33;;;1.37;;
60354;SDS011;46198;51.464;-0.066;2023-03-03T15:08:27;1.47;;;1.20;;
60354;SDS011;46198;51.464;-0.066;2023-03-03T15:14:10;1.47;;;1.37;;
60354;SDS011;46198;51.464;-0.066;2023-03-03T15:16:41;2.07;;;1.40;;
60354;SDS011;46198;51.464;-0.066;2023-03-03T15:19:16;3.63;;;1.90;;
60354;SDS011;46198;51.464;-0.066;2023-03-03T15:22:00;1.97;;;1.47;;
60354;SDS011;46198;51.464;-0.066;2023-03-03T15:24:37;1.83;;;1.53;;
60354;SDS011;46198;51.464;-0.066;2023-03-03T15:27:15;2.90;;;1.60;;
60354;SDS011;46198;51.464;-0.066;2023-03-03T15:29:53;4.57;;;1.47;;
60354;SDS011;46198;51.464;-0.066;2023-03-03T15:32:30;1.23;;;1.00;;
60354;SDS011;46198;51.464;-0.066;2023-03-03T15:35:09;2.07;;;1.40;;
60354;SDS011;46198;51.464;-0.066;2023-03-03T15:37:51;2.20;;;2.00;;
60354;SDS011;46198;51.464;-0.066;2023-03-03T15:40:26;3.27;;;1.50;;
60354;SDS011;46198;51.464;-0.066;2023-03-03T15:42:58;2.83;;;1.43;;
60354;SDS011;46198;51.464;-0.066;2023-03-03T15:45:39;1.40;;;1.30;;
60354;SDS011;46198;51.464;-0.066;2023-03-03T15:48:21;3.07;;;1.70;;
60354;SDS011;46198;51.464;-0.066;2023-03-03T15:51:02;2.33;;;1.70;;